createdAt,value
2018-05-29T00:00:48.721Z,14.43
2018-05-29T00:03:17.093Z,13.87
2018-05-29T00:05:45.505Z,14.00
2018-05-29T00:08:13.894Z,13.20
2018-05-29T00:10:42.260Z,13.00
2018-05-29T00:13:10.733Z,14.27
2018-05-29T00:15:39.133Z,13.30
2018-05-29T00:18:07.522Z,13.47
2018-05-29T00:20:35.943Z,13.67
2018-05-29T00:23:04.308Z,13.53
2018-05-29T00:25:33.463Z,13.53
2018-05-29T00:28:01.841Z,13.43
2018-05-29T00:30:30.197Z,14.07
2018-05-29T00:32:58.589Z,13.27
2018-05-29T00:35:26.993Z,13.30
2018-05-29T00:37:55.351Z,12.90
2018-05-29T00:40:23.741Z,14.03
2018-05-29T00:42:52.089Z,13.40
2018-05-29T00:45:20.490Z,14.97
2018-05-29T00:47:48.874Z,13.10
2018-05-29T00:50:17.248Z,14.47
2018-05-29T00:52:45.659Z,12.80
2018-05-29T00:55:32.576Z,12.40
2018-05-29T00:58:01.724Z,13.03
2018-05-29T01:00:30.101Z,12.80
2018-05-29T01:02:58.514Z,12.90
2018-05-29T01:05:27.670Z,13.40
2018-05-29T01:07:56.081Z,13.03
2018-05-29T01:10:24.470Z,14.43
2018-05-29T01:12:52.908Z,14.00
2018-05-29T01:15:21.294Z,14.10
2018-05-29T01:17:49.663Z,15.47
2018-05-29T01:20:18.181Z,14.20
2018-05-29T01:22:46.527Z,15.40
2018-05-29T01:25:14.872Z,14.50
2018-05-29T01:27:44.007Z,15.47
2018-05-29T01:30:12.381Z,15.53
2018-05-29T01:32:40.790Z,14.00
2018-05-29T01:35:09.184Z,15.80
2018-05-29T01:37:38.325Z,15.50
2018-05-29T01:40:06.695Z,15.57
2018-05-29T01:42:35.279Z,14.90
2018-05-29T01:45:03.662Z,14.80
2018-05-29T01:47:32.034Z,15.10
2018-05-29T01:50:00.442Z,15.80
2018-05-29T01:52:28.797Z,14.30
2018-05-29T01:54:57.159Z,15.53
2018-05-29T01:57:25.555Z,16.60
2018-05-29T01:59:53.919Z,16.40
2018-05-29T02:02:22.316Z,15.33
2018-05-29T02:04:50.733Z,16.67
2018-05-29T02:07:19.122Z,17.50
2018-05-29T02:09:47.556Z,15.63
2018-05-29T02:12:15.903Z,15.93
2018-05-29T02:14:45.021Z,15.67
2018-05-29T02:17:13.430Z,15.40
2018-05-29T02:19:41.829Z,15.73
2018-05-29T02:22:10.228Z,17.30
2018-05-29T02:24:39.363Z,15.80
2018-05-29T02:27:07.735Z,16.50
2018-05-29T02:29:36.115Z,17.10
2018-05-29T02:32:04.519Z,17.63
2018-05-29T02:34:32.881Z,16.00
2018-05-29T02:37:01.359Z,17.93
2018-05-29T02:39:29.708Z,17.63
2018-05-29T02:41:58.871Z,17.00
2018-05-29T02:44:27.242Z,18.27
2018-05-29T02:46:55.657Z,17.67
2018-05-29T02:49:24.835Z,18.27
2018-05-29T02:51:53.966Z,18.37
2018-05-29T02:54:22.326Z,19.27
2018-05-29T02:56:51.445Z,18.63
2018-05-29T02:59:19.813Z,18.13
2018-05-29T03:01:48.232Z,17.23
2018-05-29T03:04:16.592Z,19.10
2018-05-29T03:06:44.947Z,17.40
2018-05-29T03:09:13.360Z,17.70
2018-05-29T03:11:41.750Z,18.23
2018-05-29T03:14:10.124Z,16.43
2018-05-29T03:16:38.538Z,16.70
2018-05-29T03:19:07.684Z,16.63
2018-05-29T03:21:36.051Z,17.47
2018-05-29T03:24:04.393Z,15.60
2018-05-29T03:26:33.622Z,16.63
2018-05-29T03:29:02.781Z,16.07
2018-05-29T03:31:31.189Z,16.13
2018-05-29T03:33:59.528Z,14.23
2018-05-29T03:36:27.921Z,15.10
2018-05-29T03:38:56.270Z,15.80
2018-05-29T03:41:24.613Z,15.23
2018-05-29T03:43:53.000Z,14.17
2018-05-29T03:46:21.386Z,14.60
2018-05-29T03:48:49.771Z,15.37
2018-05-29T03:51:18.151Z,15.10
2018-05-29T03:53:46.510Z,15.60
2018-05-29T03:56:14.904Z,14.87
2018-05-29T03:58:43.254Z,15.43
2018-05-29T04:01:11.657Z,15.00
2018-05-29T04:03:40.085Z,15.47
2018-05-29T04:06:09.204Z,13.40
2018-05-29T04:08:37.589Z,15.13
2018-05-29T04:11:06.779Z,13.50
2018-05-29T04:13:35.923Z,14.70
2018-05-29T04:16:04.548Z,13.37
2018-05-29T04:18:33.659Z,13.23
2018-05-29T04:21:02.007Z,13.10
2018-05-29T04:23:30.417Z,14.43
2018-05-29T04:25:58.823Z,13.33
2018-05-29T04:28:27.235Z,14.07
2018-05-29T04:30:55.604Z,12.90
2018-05-29T04:33:23.989Z,12.87
2018-05-29T04:35:52.379Z,14.37
2018-05-29T04:38:20.793Z,12.90
2018-05-29T04:40:49.183Z,12.63
2018-05-29T04:43:17.540Z,13.27
2018-05-29T04:45:46.721Z,14.00
2018-05-29T04:48:15.871Z,13.00
2018-05-29T04:50:44.267Z,13.40
2018-05-29T04:53:12.602Z,12.50
2018-05-29T04:55:40.959Z,12.27
2018-05-29T04:58:09.303Z,12.30
2018-05-29T05:00:37.703Z,12.00
2018-05-29T05:03:06.072Z,11.43
2018-05-29T05:05:34.425Z,11.70
2018-05-29T05:08:02.835Z,11.37
2018-05-29T05:10:31.203Z,11.57
2018-05-29T05:12:59.593Z,11.63
2018-05-29T05:15:27.940Z,12.23
2018-05-29T05:17:56.280Z,12.10
2018-05-29T05:20:24.653Z,10.83
2018-05-29T05:22:53.825Z,10.57
2018-05-29T05:25:22.985Z,11.40
2018-05-29T05:27:51.344Z,11.23
2018-05-29T05:30:19.717Z,10.00
2018-05-29T05:32:48.061Z,11.73
2018-05-29T05:35:17.843Z,11.50
2018-05-29T05:37:46.287Z,10.60
2018-05-29T05:40:14.642Z,10.57
2018-05-29T05:42:43.782Z,11.47
2018-05-29T05:45:12.158Z,8.63
2018-05-29T05:47:40.543Z,8.37
2018-05-29T05:50:08.915Z,7.70
2018-05-29T05:52:37.276Z,8.17
2018-05-29T05:55:05.675Z,5.90
2018-05-29T05:57:34.046Z,6.60
2018-05-29T06:00:02.382Z,6.20
2018-05-29T06:02:31.549Z,5.93
2018-05-29T06:04:59.926Z,5.87
2018-05-29T06:07:28.293Z,5.53
2018-05-29T06:09:56.673Z,5.30
2018-05-29T06:12:25.089Z,5.70
2018-05-29T06:14:54.242Z,4.73
2018-05-29T06:17:22.589Z,4.40
2018-05-29T06:19:50.982Z,4.47
2018-05-29T06:22:19.381Z,4.30
2018-05-29T06:24:47.758Z,3.30
2018-05-29T06:27:16.136Z,3.90
2018-05-29T06:29:44.495Z,3.30
2018-05-29T06:32:12.890Z,3.37
2018-05-29T06:34:41.265Z,3.03
2018-05-29T06:37:09.602Z,3.20
2018-05-29T06:39:37.971Z,3.30
2018-05-29T06:42:06.374Z,3.30
2018-05-29T06:44:34.734Z,2.83
2018-05-29T06:47:03.910Z,4.23
2018-05-29T06:49:32.270Z,4.47
2018-05-29T06:52:00.635Z,4.80
2018-05-29T06:54:29.001Z,6.97
2018-05-29T06:56:57.406Z,5.63
2018-05-29T06:59:25.787Z,5.43
2018-05-29T07:01:54.172Z,5.93
2018-05-29T07:04:22.527Z,5.23
2018-05-29T07:06:50.872Z,5.80
2018-05-29T07:09:29.913Z,5.57
2018-05-29T07:11:58.257Z,6.33
2018-05-29T07:14:26.626Z,6.90
2018-05-29T07:16:54.981Z,6.23
2018-05-29T07:19:23.395Z,5.80
2018-05-29T07:21:51.781Z,5.00
2018-05-29T07:24:20.931Z,6.83
2018-05-29T07:26:49.272Z,5.47
2018-05-29T07:29:17.612Z,5.53
2018-05-29T07:31:46.210Z,6.07
2018-05-29T07:34:15.344Z,5.40
2018-05-29T07:36:43.696Z,5.23
2018-05-29T07:39:12.825Z,5.80
2018-05-29T07:41:41.167Z,6.23
2018-05-29T07:44:10.338Z,5.53
2018-05-29T07:46:38.748Z,5.67
2018-05-29T07:49:07.876Z,5.93
2018-05-29T07:51:36.248Z,4.93
2018-05-29T07:54:04.633Z,5.17
2018-05-29T07:56:32.992Z,5.80
2018-05-29T07:59:01.375Z,4.57
2018-05-29T08:01:29.778Z,5.13
2018-05-29T08:03:58.188Z,4.93
2018-05-29T08:06:26.621Z,4.67
2018-05-29T08:08:55.704Z,4.80
2018-05-29T08:11:24.104Z,4.60
2018-05-29T08:13:52.482Z,4.80
2018-05-29T08:16:20.891Z,4.87
2018-05-29T08:18:49.341Z,5.63
2018-05-29T08:21:17.738Z,4.27
2018-05-29T08:23:46.132Z,4.50
2018-05-29T08:26:14.496Z,5.27
2018-05-29T08:28:42.879Z,4.20
2018-05-29T08:31:11.264Z,4.20
2018-05-29T08:33:39.668Z,4.47
2018-05-29T08:36:08.804Z,3.87
2018-05-29T08:38:37.177Z,4.23
2018-05-29T08:41:05.573Z,4.50
2018-05-29T08:43:45.887Z,4.00
2018-05-29T08:46:14.295Z,3.10
2018-05-29T08:48:42.659Z,2.30
2018-05-29T08:51:11.007Z,2.70
2018-05-29T08:53:40.191Z,1.50
2018-05-29T08:56:08.590Z,1.60
2018-05-29T08:58:37.701Z,1.53
2018-05-29T09:01:06.835Z,1.70
2018-05-29T09:03:35.219Z,1.37
2018-05-29T09:06:03.612Z,1.43
2018-05-29T09:08:31.953Z,1.10
2018-05-29T09:11:00.315Z,1.50
2018-05-29T09:13:29.430Z,1.10
2018-05-29T09:15:57.785Z,1.10
2018-05-29T09:18:26.945Z,1.10
2018-05-29T09:20:55.293Z,1.00
2018-05-29T09:23:23.683Z,1.17
2018-05-29T09:25:52.020Z,1.40
2018-05-29T09:28:21.434Z,1.50
2018-05-29T09:30:49.808Z,1.60
2018-05-29T09:33:18.187Z,1.27
2018-05-29T09:35:46.593Z,1.20
2018-05-29T09:38:15.001Z,1.13
2018-05-29T09:40:43.355Z,1.73
2018-05-29T09:43:11.843Z,1.73
2018-05-29T09:45:40.238Z,1.30
2018-05-29T09:48:09.387Z,1.73
2018-05-29T09:50:37.771Z,1.50
2018-05-29T09:53:06.160Z,1.73
2018-05-29T09:55:34.553Z,1.43
2018-05-29T09:58:02.960Z,1.20
2018-05-29T10:00:36.840Z,1.17
2018-05-29T10:03:05.217Z,1.50
2018-05-29T10:05:33.593Z,1.37
2018-05-29T10:08:01.966Z,1.60
2018-05-29T10:10:30.297Z,1.33
2018-05-29T10:12:59.418Z,1.50
2018-05-29T10:15:27.808Z,1.80
2018-05-29T10:17:56.219Z,1.80
2018-05-29T10:20:24.827Z,2.50
2018-05-29T10:22:53.199Z,2.90
2018-05-29T10:25:21.586Z,3.47
2018-05-29T10:27:50.732Z,3.50
2018-05-29T10:30:19.125Z,3.40
2018-05-29T10:32:47.483Z,4.87
2018-05-29T10:35:15.857Z,3.80
2018-05-29T10:37:44.206Z,3.97
2018-05-29T10:40:13.358Z,3.60
2018-05-29T10:42:41.739Z,4.13
2018-05-29T10:45:10.112Z,3.63
2018-05-29T10:47:38.508Z,3.73
2018-05-29T10:50:06.886Z,3.40
2018-05-29T10:55:32.547Z,5.97
2018-05-29T10:58:01.752Z,3.77
2018-05-29T11:00:30.112Z,4.07
2018-05-29T11:02:58.513Z,4.00
2018-05-29T11:05:26.920Z,3.60
2018-05-29T11:07:55.301Z,4.87
2018-05-29T11:10:23.707Z,3.60
2018-05-29T11:12:52.078Z,3.40
2018-05-29T11:15:20.462Z,3.70
2018-05-29T11:17:48.864Z,3.40
2018-05-29T11:20:17.212Z,4.83
2018-05-29T11:22:45.615Z,3.90
2018-05-29T11:25:13.981Z,4.47
2018-05-29T11:27:42.392Z,3.87
2018-05-29T11:30:11.539Z,4.73
2018-05-29T11:32:39.936Z,3.87
2018-05-29T11:35:08.328Z,4.17
2018-05-29T11:37:36.710Z,4.10
2018-05-29T11:40:05.489Z,4.37
2018-05-29T11:42:33.914Z,4.30
2018-05-29T11:45:03.007Z,3.80
2018-05-29T11:47:31.390Z,3.97
2018-05-29T11:49:59.802Z,4.23
2018-05-29T11:52:28.167Z,3.70
2018-05-29T11:54:56.551Z,4.67
2018-05-29T11:57:24.892Z,4.80
2018-05-29T11:59:53.269Z,3.50
2018-05-29T12:02:21.713Z,3.80
2018-05-29T12:04:50.107Z,4.23
2018-05-29T12:07:19.282Z,4.10
2018-05-29T12:09:47.710Z,3.80
2018-05-29T12:12:25.956Z,4.00
2018-05-29T12:14:54.332Z,3.73
2018-05-29T12:17:22.697Z,4.30
2018-05-29T12:19:51.029Z,3.63
2018-05-29T12:22:19.472Z,4.10
2018-05-29T12:24:47.841Z,3.27
2018-05-29T12:27:16.200Z,3.70
2018-05-29T12:29:44.576Z,4.13
2018-05-29T12:32:12.969Z,3.50
2018-05-29T12:34:41.343Z,3.27
2018-05-29T12:37:09.695Z,4.33
2018-05-29T12:39:38.835Z,4.33
2018-05-29T12:42:07.212Z,3.90
2018-05-29T12:44:35.749Z,3.97
2018-05-29T12:47:04.865Z,4.00
2018-05-29T12:49:33.240Z,3.40
2018-05-29T12:52:01.602Z,3.47
2018-05-29T12:54:30.743Z,3.80
2018-05-29T12:56:59.122Z,3.80
2018-05-29T12:59:27.483Z,3.60
2018-05-29T13:01:55.820Z,4.20
2018-05-29T13:04:24.413Z,3.30
2018-05-29T13:06:53.563Z,3.60
2018-05-29T13:09:21.953Z,3.53
2018-05-29T13:11:50.349Z,3.90
2018-05-29T13:14:18.718Z,4.07
2018-05-29T13:16:47.111Z,3.90
2018-05-29T13:19:15.516Z,3.27
2018-05-29T13:21:43.863Z,3.30
2018-05-29T13:24:12.385Z,3.60
2018-05-29T13:26:40.759Z,3.57
2018-05-29T13:29:09.150Z,3.50
2018-05-29T13:31:37.568Z,2.97
2018-05-29T13:34:05.925Z,3.30
2018-05-29T13:36:34.276Z,3.93
2018-05-29T13:39:09.601Z,3.20
2018-05-29T13:41:37.986Z,3.60
2018-05-29T13:44:06.386Z,4.03
2018-05-29T13:46:34.757Z,3.87
2018-05-29T13:49:03.845Z,3.80
2018-05-29T13:54:29.295Z,4.23
2018-05-29T13:56:57.659Z,3.40
2018-05-29T13:59:26.048Z,3.20
2018-05-29T14:01:54.402Z,4.87
2018-05-29T14:04:23.569Z,3.57
2018-05-29T14:06:52.736Z,3.50
2018-05-29T14:09:21.145Z,3.93
2018-05-29T14:11:49.500Z,3.60
2018-05-29T14:14:17.854Z,3.70
2018-05-29T14:16:46.208Z,4.77
2018-05-29T14:19:15.344Z,4.37
2018-05-29T14:21:43.705Z,4.03
2018-05-29T14:24:12.085Z,4.07
2018-05-29T14:26:40.571Z,4.07
2018-05-29T14:29:08.981Z,4.70
2018-05-29T14:31:37.332Z,4.30
2018-05-29T14:34:05.714Z,4.30
2018-05-29T14:36:34.098Z,3.93
2018-05-29T14:39:02.497Z,4.17
2018-05-29T14:41:30.894Z,5.10
2018-05-29T14:43:59.467Z,4.60
2018-05-29T14:46:27.864Z,4.50
2018-05-29T14:48:57.033Z,3.80
2018-05-29T14:51:25.396Z,4.20
2018-05-29T14:53:53.736Z,4.00
2018-05-29T14:56:22.101Z,4.47
2018-05-29T14:58:51.215Z,4.37
2018-05-29T15:01:19.604Z,4.00
2018-05-29T15:03:47.961Z,3.80
2018-05-29T15:06:16.322Z,3.43
2018-05-29T15:08:44.752Z,3.93
2018-05-29T15:11:13.126Z,3.67
2018-05-29T15:13:41.537Z,3.47
2018-05-29T15:16:09.882Z,3.50
2018-05-29T15:18:38.261Z,3.70
2018-05-29T15:21:06.643Z,3.73
2018-05-29T15:23:35.008Z,4.00
2018-05-29T15:26:03.493Z,4.03
2018-05-29T15:28:31.856Z,3.63
2018-05-29T15:31:00.258Z,3.97
2018-05-29T15:33:28.675Z,3.80
2018-05-29T15:35:57.076Z,3.90
2018-05-29T15:38:26.196Z,4.20
2018-05-29T15:40:54.567Z,4.30
2018-05-29T15:43:22.947Z,3.90
2018-05-29T15:45:51.288Z,3.80
2018-05-29T15:48:19.669Z,3.93
2018-05-29T15:50:48.035Z,4.00
2018-05-29T15:53:16.393Z,3.80
2018-05-29T15:55:44.856Z,3.57
2018-05-29T15:58:13.182Z,3.50
2018-05-29T16:00:41.587Z,4.40
2018-05-29T16:03:10.035Z,3.97
2018-05-29T16:05:38.443Z,3.80
2018-05-29T16:08:06.848Z,3.43
2018-05-29T16:10:35.209Z,3.40
2018-05-29T16:13:03.608Z,3.70
2018-05-29T16:15:32.885Z,3.80
2018-05-29T16:18:02.005Z,3.70
2018-05-29T16:20:30.373Z,3.80
2018-05-29T16:22:59.484Z,3.90
2018-05-29T16:28:26.407Z,3.73
2018-05-29T16:30:55.547Z,3.70
2018-05-29T16:33:23.971Z,3.53
2018-05-29T16:35:52.356Z,3.70
2018-05-29T16:38:21.484Z,4.40
2018-05-29T16:40:49.885Z,4.40
2018-05-29T16:43:18.261Z,4.70
2018-05-29T16:45:46.645Z,5.20
2018-05-29T16:48:15.053Z,5.57
2018-05-29T16:50:43.417Z,5.47
2018-05-29T16:53:11.826Z,5.60
2018-05-29T16:55:40.987Z,5.43
2018-05-29T16:58:09.353Z,6.53
2018-05-29T17:00:37.757Z,5.47
2018-05-29T17:03:06.368Z,5.33
2018-05-29T17:05:35.673Z,5.43
2018-05-29T17:08:04.841Z,5.43
2018-05-29T17:10:33.175Z,4.93
2018-05-29T17:13:01.565Z,5.40
2018-05-29T17:15:29.970Z,5.27
2018-05-29T17:17:58.325Z,5.50
2018-05-29T17:23:24.093Z,5.57
2018-05-29T17:25:52.449Z,5.43
2018-05-29T17:28:20.817Z,5.67
2018-05-29T17:30:49.199Z,5.77
2018-05-29T17:33:17.543Z,6.00
2018-05-29T17:35:45.900Z,5.10
2018-05-29T17:38:14.295Z,4.83
2018-05-29T17:40:43.510Z,6.23
2018-05-29T17:43:11.904Z,5.67
2018-05-29T17:45:40.252Z,5.23
2018-05-29T17:48:09.414Z,5.00
2018-05-29T17:50:37.825Z,5.10
2018-05-29T17:53:07.014Z,4.40
2018-05-29T17:55:36.179Z,4.70
2018-05-29T17:58:04.556Z,4.40
2018-05-29T18:00:32.902Z,4.70
2018-05-29T18:03:01.285Z,5.43
2018-05-29T18:05:29.675Z,3.63
2018-05-29T18:07:58.044Z,4.07
2018-05-29T18:10:26.436Z,4.67
2018-05-29T18:12:54.773Z,4.77
2018-05-29T18:15:23.875Z,4.77
2018-05-29T18:17:52.257Z,4.50
2018-05-29T18:20:20.596Z,5.00
2018-05-29T18:22:48.982Z,4.90
2018-05-29T18:25:17.359Z,4.63
2018-05-29T18:27:45.705Z,4.90
2018-05-29T18:30:14.077Z,4.87
2018-05-29T18:32:42.463Z,5.27
2018-05-29T18:35:10.795Z,5.20
2018-05-29T18:37:40.024Z,4.90
2018-05-29T18:40:08.378Z,5.80
2018-05-29T18:42:36.721Z,5.03
2018-05-29T18:45:05.059Z,5.43
2018-05-29T18:47:33.470Z,4.70
2018-05-29T18:50:01.815Z,4.83
2018-05-29T18:52:30.180Z,5.07
2018-05-29T18:54:58.528Z,5.70
2018-05-29T18:57:27.660Z,5.13
2018-05-29T18:59:56.053Z,5.50
2018-05-29T19:02:24.425Z,6.20
2018-05-29T19:04:52.814Z,5.50
2018-05-29T19:07:21.206Z,5.33
2018-05-29T19:09:49.641Z,5.50
2018-05-29T19:12:18.016Z,5.07
2018-05-29T19:14:46.372Z,5.43
2018-05-29T19:17:15.524Z,4.57
2018-05-29T19:19:43.913Z,5.30
2018-05-29T19:22:12.265Z,5.33
2018-05-29T19:24:40.646Z,5.90
2018-05-29T19:27:09.058Z,5.20
2018-05-29T19:29:37.408Z,6.03
2018-05-29T19:32:05.787Z,5.20
2018-05-29T19:34:34.198Z,5.70
2018-05-29T19:37:02.582Z,5.53
2018-05-29T19:39:31.025Z,6.00
2018-05-29T19:41:59.431Z,5.50
2018-05-29T19:44:27.770Z,6.07
2018-05-29T19:46:56.111Z,5.33
2018-05-29T19:49:25.283Z,5.03
2018-05-29T19:51:53.627Z,5.70
2018-05-29T19:54:22.000Z,4.83
2018-05-29T19:56:50.347Z,4.47
2018-05-29T19:59:19.477Z,4.70
2018-05-29T20:01:47.890Z,4.30
2018-05-29T20:04:16.271Z,4.50
2018-05-29T20:06:44.630Z,5.10
2018-05-29T20:09:12.985Z,5.30
2018-05-29T20:11:41.336Z,5.60
2018-05-29T20:14:10.440Z,6.20
2018-05-29T20:16:39.564Z,5.87
2018-05-29T20:19:07.917Z,5.30
2018-05-29T20:21:37.043Z,5.67
2018-05-29T20:24:05.422Z,5.47
2018-05-29T20:26:33.880Z,5.80
2018-05-29T20:29:02.401Z,5.33
2018-05-29T20:31:30.851Z,4.90
2018-05-29T20:33:59.932Z,5.23
2018-05-29T20:36:28.276Z,5.60
2018-05-29T20:38:56.716Z,5.40
2018-05-29T20:41:25.080Z,5.80
2018-05-29T20:43:53.439Z,5.77
2018-05-29T20:46:22.610Z,6.57
2018-05-29T20:48:50.997Z,5.63
2018-05-29T20:51:20.156Z,6.10
2018-05-29T20:53:48.490Z,6.47
2018-05-29T20:56:17.631Z,6.10
2018-05-29T20:58:46.910Z,6.60
2018-05-29T21:01:15.303Z,6.80
2018-05-29T21:03:43.763Z,6.40
2018-05-29T21:06:12.893Z,6.87
2018-05-29T21:08:41.263Z,7.57
2018-05-29T21:11:09.680Z,6.63
2018-05-29T21:13:38.109Z,6.73
2018-05-29T21:16:06.495Z,7.23
2018-05-29T21:18:34.846Z,6.77
2018-05-29T21:21:03.224Z,7.10
2018-05-29T21:23:31.597Z,7.13
2018-05-29T21:25:59.973Z,7.40
2018-05-29T21:28:28.328Z,7.30
2018-05-29T21:30:56.804Z,7.73
2018-05-29T21:33:25.154Z,6.33
2018-05-29T21:35:53.505Z,7.10
2018-05-29T21:38:21.902Z,6.10
2018-05-29T21:40:50.252Z,6.20
2018-05-29T21:43:18.607Z,6.63
2018-05-29T21:45:46.976Z,6.03
2018-05-29T21:48:15.411Z,7.20
2018-05-29T21:50:43.754Z,7.30
2018-05-29T21:53:12.862Z,6.20
2018-05-29T21:55:41.226Z,6.37
2018-05-29T21:58:10.464Z,6.60
2018-05-29T22:00:38.808Z,7.10
2018-05-29T22:03:07.937Z,6.90
2018-05-29T22:05:36.313Z,6.77
2018-05-29T22:08:04.694Z,6.83
2018-05-29T22:10:33.035Z,7.40
2018-05-29T22:13:02.148Z,7.30
2018-05-29T22:15:30.489Z,7.17
2018-05-29T22:17:58.831Z,6.23
2018-05-29T22:20:27.205Z,7.30
2018-05-29T22:22:55.603Z,7.10
2018-05-29T22:25:23.989Z,7.67
2018-05-29T22:27:52.340Z,6.87
2018-05-29T22:30:20.804Z,6.40
2018-05-29T22:32:49.176Z,6.90
2018-05-29T22:35:17.515Z,6.80
2018-05-29T22:37:45.908Z,6.93
2018-05-29T22:40:15.032Z,6.40
2018-05-29T22:42:43.402Z,6.53
2018-05-29T22:45:11.775Z,6.13
2018-05-29T22:47:40.885Z,6.10
2018-05-29T22:50:09.243Z,6.57
2018-05-29T22:52:38.398Z,6.70
2018-05-29T22:55:06.785Z,6.13
2018-05-29T22:57:35.145Z,6.23
2018-05-29T23:00:03.518Z,7.20
2018-05-29T23:02:31.892Z,7.20
2018-05-29T23:05:00.264Z,7.30
2018-05-29T23:07:28.653Z,6.50
2018-05-29T23:09:57.026Z,7.20
2018-05-29T23:12:25.378Z,6.53
2018-05-29T23:14:53.740Z,6.63
2018-05-29T23:17:22.866Z,6.80
2018-05-29T23:19:51.211Z,6.70
2018-05-29T23:22:20.347Z,6.93
2018-05-29T23:24:48.715Z,7.53
2018-05-29T23:27:17.124Z,6.43
2018-05-29T23:29:45.473Z,7.33
2018-05-29T23:32:13.833Z,7.30
2018-05-29T23:34:42.202Z,7.20
2018-05-29T23:37:11.352Z,7.50
2018-05-29T23:39:39.750Z,8.70
2018-05-29T23:42:08.903Z,8.37
2018-05-29T23:44:37.298Z,7.83
2018-05-29T23:47:05.684Z,7.80
2018-05-29T23:49:34.056Z,7.80
2018-05-29T23:52:02.423Z,8.30
2018-05-29T23:54:30.821Z,9.10
2018-05-29T23:56:59.199Z,8.10
2018-05-29T23:59:27.585Z,8.87
